createdAt,value
2018-06-13T00:01:20.323Z,28.53
2018-06-13T00:03:50.543Z,24.00
2018-06-13T00:06:21.484Z,24.50
2018-06-13T00:18:57.652Z,26.07
2018-06-13T00:21:34.924Z,33.57
2018-06-13T00:24:39.139Z,27.23
2018-06-13T00:27:08.964Z,30.80
2018-06-13T00:29:39.360Z,26.67
2018-06-13T00:32:09.651Z,26.23
2018-06-13T00:34:39.441Z,28.80
2018-06-13T00:37:09.175Z,27.10
2018-06-13T00:39:39.447Z,28.60
2018-06-13T00:42:09.392Z,33.87
2018-06-13T00:44:39.520Z,21.63
2018-06-13T00:47:09.247Z,28.77
2018-06-13T00:49:40.597Z,27.17
2018-06-13T00:52:10.390Z,26.10
2018-06-13T00:54:40.124Z,25.07
2018-06-13T00:57:10.165Z,23.80
2018-06-13T01:00:16.757Z,25.63
2018-06-13T01:02:47.300Z,25.43
2018-06-13T01:05:17.319Z,24.93
2018-06-13T01:07:47.249Z,22.83
2018-06-13T01:10:17.524Z,24.03
2018-06-13T01:15:29.856Z,25.10
2018-06-13T01:18:01.435Z,29.63
2018-06-13T01:20:40.483Z,31.90
2018-06-13T01:23:10.590Z,24.63
2018-06-13T01:25:50.006Z,32.20
2018-06-13T01:28:20.634Z,31.07
2018-06-13T01:30:50.792Z,26.33
2018-06-13T01:33:30.110Z,28.53
2018-06-13T01:36:00.783Z,42.77
2018-06-13T01:43:34.769Z,27.87
2018-06-13T01:46:17.769Z,28.07
2018-06-13T01:51:30.868Z,28.67
2018-06-13T01:54:16.184Z,21.23
2018-06-13T01:56:46.270Z,30.77
2018-06-13T01:59:16.223Z,27.70
2018-06-13T02:01:48.816Z,29.03
2018-06-13T02:04:18.753Z,28.10
2018-06-13T02:06:48.784Z,37.10
2018-06-13T02:09:18.738Z,34.43
2018-06-13T02:11:49.998Z,33.53
2018-06-13T02:14:19.944Z,29.23
2018-06-13T02:16:49.988Z,32.77
2018-06-13T02:19:24.121Z,30.47
2018-06-13T02:21:54.634Z,27.67
2018-06-13T02:24:24.504Z,30.60
2018-06-13T02:26:54.472Z,27.50
2018-06-13T02:29:24.373Z,34.97
2018-06-13T02:31:56.844Z,29.63
2018-06-13T02:34:26.824Z,34.10
2018-06-13T02:36:56.828Z,30.37
2018-06-13T02:39:26.682Z,31.63
2018-06-13T02:41:56.568Z,24.00
2018-06-13T02:44:26.484Z,27.60
2018-06-13T02:46:57.169Z,29.03
2018-06-13T02:49:27.347Z,26.87
2018-06-13T02:51:57.266Z,34.40
2018-06-13T02:54:27.118Z,24.70
2018-06-13T02:56:57.056Z,33.30
2018-06-13T02:59:26.917Z,28.43
2018-06-13T03:01:57.159Z,31.73
2018-06-13T03:04:27.072Z,30.83
2018-06-13T03:06:57.021Z,29.53
2018-06-13T03:09:26.908Z,27.10
2018-06-13T03:12:24.654Z,26.23
2018-06-13T03:14:55.149Z,29.67
2018-06-13T03:17:25.671Z,26.47
2018-06-13T03:19:57.997Z,24.47
2018-06-13T03:28:23.812Z,24.77
2018-06-13T03:30:53.746Z,30.90
2018-06-13T03:33:23.324Z,25.47
2018-06-13T03:35:54.384Z,27.93
2018-06-13T03:38:24.196Z,22.07
2018-06-13T03:40:53.879Z,32.03
2018-06-13T03:43:23.729Z,24.50
2018-06-13T03:45:53.737Z,22.53
2018-06-13T03:48:23.251Z,22.80
2018-06-13T03:50:53.612Z,23.43
2018-06-13T03:54:21.563Z,21.80
2018-06-13T03:56:51.161Z,21.97
2018-06-13T03:59:21.670Z,19.27
2018-06-13T04:01:51.331Z,21.07
2018-06-13T04:04:21.477Z,17.67
2018-06-13T04:06:51.051Z,21.37
2018-06-13T04:09:22.814Z,19.60
2018-06-13T04:11:52.463Z,23.03
2018-06-13T04:14:21.941Z,16.53
2018-06-13T04:16:51.435Z,17.70
2018-06-13T04:19:22.269Z,19.57
2018-06-13T04:21:52.125Z,22.37
2018-06-13T04:24:21.528Z,18.50
2018-06-13T04:26:56.616Z,16.33
2018-06-13T04:29:28.923Z,18.50
2018-06-13T05:24:36.013Z,19.77
2018-06-13T05:27:07.080Z,20.07
2018-06-13T05:29:36.824Z,24.83
2018-06-13T05:32:06.499Z,17.90
2018-06-13T05:34:37.378Z,21.73
2018-06-13T05:37:25.643Z,21.53
2018-06-13T05:39:55.920Z,18.70
2018-06-13T05:42:25.430Z,19.93
2018-06-13T05:45:01.292Z,18.17
2018-06-13T05:47:31.007Z,18.40
2018-06-13T05:50:00.426Z,26.50
2018-06-13T05:52:30.204Z,21.87
2018-06-13T05:55:00.591Z,21.20
2018-06-13T05:57:30.006Z,21.33
2018-06-13T05:59:59.656Z,18.67
2018-06-13T06:02:29.054Z,20.50
2018-06-13T06:04:58.495Z,21.07
2018-06-13T06:07:27.863Z,17.63
2018-06-13T06:09:57.797Z,18.30
2018-06-13T06:12:27.237Z,17.57
2018-06-13T06:14:59.626Z,18.90
2018-06-13T06:17:29.466Z,21.63
2018-06-13T06:19:59.076Z,18.20
2018-06-13T06:22:28.477Z,16.47
2018-06-13T06:24:57.961Z,18.33
2018-06-13T06:27:32.611Z,14.03
2018-06-13T06:30:02.026Z,17.07
2018-06-13T06:32:31.408Z,15.30
2018-06-13T06:35:01.325Z,17.23
2018-06-13T06:37:30.793Z,15.33
2018-06-13T06:40:00.344Z,17.47
2018-06-13T06:42:29.821Z,16.00
2018-06-13T06:44:59.522Z,13.00
2018-06-13T06:47:28.953Z,11.93
2018-06-13T06:49:58.416Z,11.23
2018-06-13T06:52:27.865Z,13.00
2018-06-13T06:54:57.740Z,8.37
2018-06-13T06:57:27.324Z,11.33
2018-06-13T06:59:56.962Z,10.97
2018-06-13T07:02:26.557Z,8.77
2018-06-13T07:04:56.141Z,8.20
2018-06-13T07:07:25.616Z,11.47
2018-06-13T07:09:56.385Z,10.30
2018-06-13T07:12:26.053Z,12.43
2018-06-13T07:14:55.942Z,15.90
2018-06-13T07:17:25.668Z,12.10
2018-06-13T07:19:55.095Z,9.30
2018-06-13T07:22:24.487Z,9.60
2018-06-13T07:24:53.893Z,9.50
2018-06-13T07:27:23.629Z,8.47
2018-06-13T07:29:53.076Z,12.93
2018-06-13T07:32:22.770Z,10.60
2018-06-13T07:34:52.216Z,9.30
2018-06-13T07:37:21.709Z,14.03
2018-06-13T07:39:51.135Z,12.43
2018-06-13T07:42:22.003Z,13.67
2018-06-13T07:44:51.415Z,10.33
2018-06-13T07:47:20.824Z,12.70
2018-06-13T07:49:50.227Z,10.03
2018-06-13T07:52:23.492Z,10.93
2018-06-13T07:54:52.977Z,12.67
2018-06-13T07:57:22.421Z,12.20
2018-06-13T07:59:51.824Z,10.37
2018-06-13T08:02:21.676Z,11.07
2018-06-13T08:04:51.045Z,11.60
2018-06-13T08:07:20.458Z,11.17
2018-06-13T08:09:49.903Z,13.47
2018-06-13T08:12:20.186Z,13.37
2018-06-13T08:14:49.605Z,11.07
2018-06-13T08:17:19.139Z,11.73
2018-06-13T08:19:48.685Z,13.57
2018-06-13T08:22:18.452Z,12.43
2018-06-13T08:24:55.204Z,12.20
2018-06-13T08:27:24.674Z,12.53
2018-06-13T08:29:54.367Z,14.13
2018-06-13T08:32:24.453Z,16.10
2018-06-13T08:34:53.838Z,13.00
2018-06-13T08:37:24.582Z,10.57
2018-06-13T08:39:54.109Z,13.67
2018-06-13T08:42:23.628Z,13.17
2018-06-13T08:44:52.960Z,10.87
2018-06-13T08:47:23.275Z,12.73
2018-06-13T08:49:52.688Z,14.47
2018-06-13T08:52:22.187Z,12.47
2018-06-13T08:54:51.561Z,11.13
2018-06-13T08:57:21.300Z,9.80
2018-06-13T08:59:50.949Z,12.43
2018-06-13T09:02:20.393Z,9.47
2018-06-13T09:04:50.294Z,8.60
2018-06-13T09:07:19.701Z,9.30
2018-06-13T09:09:49.095Z,8.50
2018-06-13T09:12:19.005Z,11.53
2018-06-13T09:14:48.456Z,7.50
2018-06-13T09:17:18.299Z,13.23
2018-06-13T09:19:47.709Z,8.27
2018-06-13T09:22:17.405Z,8.27
2018-06-13T09:24:47.064Z,10.00
2018-06-13T09:27:16.505Z,7.63
2018-06-13T09:29:45.963Z,6.87
2018-06-13T09:32:15.431Z,8.23
2018-06-13T09:34:44.785Z,7.50
2018-06-13T09:37:14.514Z,6.97
2018-06-13T09:39:43.962Z,7.63
2018-06-13T09:42:13.357Z,9.17
2018-06-13T09:44:42.766Z,7.93
2018-06-13T09:47:15.130Z,7.80
2018-06-13T09:49:42.244Z,6.93
2018-06-13T09:52:11.899Z,8.13
2018-06-13T09:54:41.287Z,9.97
2018-06-13T09:57:10.669Z,6.23
2018-06-13T09:59:45.612Z,8.53
2018-06-13T10:02:18.534Z,7.97
2018-06-13T10:04:48.648Z,5.97
2018-06-13T10:07:20.352Z,6.37
2018-06-13T10:09:50.032Z,5.70
2018-06-13T10:12:19.615Z,5.93
2018-06-13T10:14:49.176Z,6.27
2018-06-13T10:17:18.638Z,7.47
2018-06-13T10:19:48.296Z,5.50
2018-06-13T10:22:17.824Z,6.80
2018-06-13T10:24:47.200Z,6.73
2018-06-13T10:27:22.106Z,5.00
2018-06-13T10:29:51.451Z,11.97
2018-06-13T10:32:20.820Z,5.57
2018-06-13T10:34:50.492Z,6.00
2018-06-13T10:37:19.933Z,6.47
2018-06-13T10:39:49.388Z,6.23
2018-06-13T10:42:19.208Z,5.30
2018-06-13T10:44:48.799Z,5.50
2018-06-13T10:47:18.311Z,5.10
2018-06-13T10:49:47.971Z,4.60
2018-06-13T10:52:17.375Z,4.37
2018-06-13T10:54:46.718Z,4.40
2018-06-13T10:57:16.415Z,5.07
2018-06-13T10:59:45.843Z,5.60
2018-06-13T11:02:15.294Z,5.10
2018-06-13T11:04:45.122Z,7.47
2018-06-13T11:07:14.516Z,7.37
2018-06-13T11:09:43.942Z,4.47
2018-06-13T11:12:13.860Z,5.33
2018-06-13T11:14:43.230Z,5.07
2018-06-13T11:17:12.635Z,4.10
2018-06-13T11:19:42.294Z,6.30
2018-06-13T11:22:11.687Z,4.73
2018-06-13T11:24:41.343Z,6.40
2018-06-13T11:27:11.269Z,4.37
2018-06-13T11:29:40.676Z,8.77
2018-06-13T11:32:10.043Z,5.50
2018-06-13T11:34:41.897Z,4.50
2018-06-13T11:37:11.266Z,4.73
2018-06-13T11:39:40.653Z,6.00
2018-06-13T11:42:10.353Z,5.53
2018-06-13T11:44:39.702Z,4.93
2018-06-13T11:47:09.272Z,4.60
2018-06-13T11:49:38.708Z,6.13
2018-06-13T11:52:08.443Z,4.90
2018-06-13T11:54:37.984Z,4.17
2018-06-13T11:57:07.724Z,5.90
2018-06-13T11:59:37.447Z,6.73
2018-06-13T12:02:07.497Z,6.20
2018-06-13T12:04:37.026Z,4.23
2018-06-13T12:07:06.589Z,5.30
2018-06-13T12:09:36.639Z,5.77
2018-06-13T12:12:06.377Z,4.17
2018-06-13T12:14:35.992Z,10.70
2018-06-13T12:17:07.306Z,4.90
2018-06-13T12:19:36.785Z,4.90
2018-06-13T12:22:06.569Z,7.07
2018-06-13T12:24:37.761Z,5.00
2018-06-13T12:27:07.504Z,5.23
2018-06-13T12:29:36.936Z,5.43
2018-06-13T12:32:11.429Z,4.27
2018-06-13T12:34:40.934Z,5.60
2018-06-13T12:37:10.295Z,5.20
2018-06-13T12:39:42.293Z,8.63
2018-06-13T12:42:11.701Z,7.13
2018-06-13T12:44:41.128Z,7.27
2018-06-13T12:47:10.941Z,8.70
2018-06-13T12:49:40.447Z,5.63
2018-06-13T12:52:09.901Z,6.77
2018-06-13T12:54:39.645Z,5.30
2018-06-13T12:57:09.058Z,4.63
2018-06-13T12:59:38.448Z,5.13
2018-06-13T13:02:08.305Z,4.87
2018-06-13T13:04:37.799Z,5.97
2018-06-13T13:07:07.351Z,4.57
2018-06-13T13:09:37.148Z,4.90
2018-06-13T13:12:06.776Z,5.30
2018-06-13T13:14:37.208Z,5.80
2018-06-13T13:17:08.176Z,6.17
2018-06-13T13:19:37.869Z,5.53
2018-06-13T13:22:07.773Z,4.77
2018-06-13T13:24:37.518Z,6.87
2018-06-13T13:27:07.089Z,4.53
2018-06-13T13:29:36.661Z,5.97
2018-06-13T13:32:06.502Z,6.43
2018-06-13T13:34:37.121Z,6.73
2018-06-13T13:37:07.196Z,5.10
2018-06-13T13:39:39.264Z,4.97
2018-06-13T13:42:08.900Z,5.67
2018-06-13T13:44:38.448Z,4.43
2018-06-13T13:47:10.322Z,5.73
2018-06-13T13:49:39.694Z,4.23
2018-06-13T13:52:09.276Z,4.17
2018-06-13T13:54:39.131Z,4.10
2018-06-13T13:57:08.600Z,4.10
2018-06-13T13:59:38.025Z,4.17
2018-06-13T14:02:08.265Z,4.67
2018-06-13T14:04:37.720Z,4.67
2018-06-13T14:07:07.247Z,3.70
2018-06-13T14:09:38.438Z,3.83
2018-06-13T14:12:08.117Z,4.83
2018-06-13T14:14:37.612Z,7.40
2018-06-13T14:17:08.543Z,3.33
2018-06-13T14:19:37.971Z,5.27
2018-06-13T14:22:07.590Z,4.20
2018-06-13T14:24:37.270Z,3.07
2018-06-13T14:27:06.776Z,3.70
2018-06-13T14:29:46.698Z,8.20
2018-06-13T14:32:16.670Z,5.57
2018-06-13T14:34:46.095Z,4.00
2018-06-13T14:37:15.780Z,3.80
2018-06-13T14:39:46.327Z,3.93
2018-06-13T14:42:15.932Z,3.63
2018-06-13T14:44:45.472Z,4.20
2018-06-13T14:47:15.119Z,3.53
2018-06-13T14:49:44.459Z,4.60
2018-06-13T14:52:13.868Z,4.27
2018-06-13T14:54:43.643Z,3.10
2018-06-13T14:57:13.048Z,3.93
2018-06-13T14:59:42.661Z,3.83
2018-06-13T15:02:13.245Z,5.13
2018-06-13T15:04:45.189Z,3.90
2018-06-13T15:07:14.572Z,6.20
2018-06-13T15:09:45.338Z,8.73
2018-06-13T15:12:14.771Z,5.10
2018-06-13T15:14:44.208Z,4.37
2018-06-13T15:17:13.923Z,4.47
2018-06-13T15:19:43.549Z,4.00
2018-06-13T15:22:13.585Z,4.73
2018-06-13T15:24:43.032Z,3.70
2018-06-13T15:27:12.954Z,3.90
2018-06-13T15:29:42.612Z,6.13
2018-06-13T15:32:12.796Z,3.60
2018-06-13T15:34:42.456Z,3.37
2018-06-13T15:37:12.067Z,4.27
2018-06-13T15:39:43.820Z,4.47
2018-06-13T15:42:13.258Z,3.80
2018-06-13T15:44:42.760Z,3.27
2018-06-13T15:47:13.132Z,4.33
2018-06-13T15:49:42.652Z,3.87
2018-06-13T15:52:12.193Z,3.07
2018-06-13T15:54:41.675Z,3.60
2018-06-13T15:57:11.460Z,3.20
2018-06-13T15:59:40.929Z,4.77
2018-06-13T16:02:11.048Z,6.50
2018-06-13T16:04:40.488Z,3.77
2018-06-13T16:07:10.104Z,3.43
2018-06-13T16:09:40.220Z,4.47
2018-06-13T16:12:09.757Z,3.83
2018-06-13T16:14:39.218Z,4.13
2018-06-13T16:17:08.921Z,3.33
2018-06-13T16:19:39.658Z,5.80
2018-06-13T16:22:09.250Z,6.27
2018-06-13T16:24:38.895Z,4.10
2018-06-13T16:27:08.507Z,13.30
2018-06-13T16:29:37.920Z,6.00
2018-06-13T16:32:08.250Z,3.73
2018-06-13T16:34:38.199Z,3.20
2018-06-13T16:37:08.588Z,3.77
2018-06-13T16:39:39.647Z,3.70
2018-06-13T16:42:14.777Z,5.07
2018-06-13T16:44:44.487Z,4.33
2018-06-13T16:47:14.184Z,5.43
2018-06-13T16:49:44.061Z,4.03
2018-06-13T16:52:25.710Z,3.87
2018-06-13T16:55:03.489Z,3.43
2018-06-13T16:57:33.248Z,5.70
2018-06-13T17:00:03.518Z,5.37
2018-06-13T17:02:34.786Z,5.17
2018-06-13T17:05:05.912Z,5.43
2018-06-13T17:07:39.299Z,4.63
2018-06-13T17:10:09.729Z,4.27
2018-06-13T17:12:41.132Z,4.90
2018-06-13T17:15:12.484Z,4.33
2018-06-13T17:17:42.394Z,4.83
2018-06-13T17:20:13.546Z,4.07
2018-06-13T17:22:43.033Z,3.10
2018-06-13T17:25:13.011Z,5.47
2018-06-13T17:27:43.562Z,3.93
2018-06-13T17:30:13.111Z,6.03
2018-06-13T17:32:43.232Z,4.30
2018-06-13T17:35:14.408Z,7.20
2018-06-13T17:37:43.965Z,5.37
2018-06-13T17:40:13.838Z,5.00
2018-06-13T17:42:44.498Z,6.40
2018-06-13T17:45:20.486Z,4.47
2018-06-13T17:47:50.582Z,4.50
2018-06-13T17:50:21.852Z,4.03
2018-06-13T17:52:52.449Z,7.87
2018-06-13T17:55:28.401Z,5.17
2018-06-13T17:57:58.305Z,3.70
2018-06-13T18:00:27.899Z,3.77
2018-06-13T18:02:57.660Z,3.53
2018-06-13T18:05:28.041Z,3.30
2018-06-13T18:07:58.180Z,3.53
2018-06-13T18:10:30.738Z,3.57
2018-06-13T18:13:00.211Z,4.80
2018-06-13T18:15:30.947Z,4.03
2018-06-13T18:18:01.500Z,3.67
2018-06-13T18:20:34.290Z,5.07
2018-06-13T18:23:04.436Z,4.30
2018-06-13T18:25:33.878Z,4.53
2018-06-13T18:28:03.889Z,4.03
2018-06-13T18:30:33.948Z,5.70
2018-06-13T18:33:03.509Z,6.00
2018-06-13T18:35:33.020Z,3.37
2018-06-13T18:38:03.037Z,4.33
2018-06-13T18:40:32.711Z,4.67
2018-06-13T18:43:02.389Z,4.97
2018-06-13T18:45:32.067Z,5.47
2018-06-13T18:48:01.661Z,5.60
2018-06-13T18:50:31.144Z,6.43
2018-06-13T18:53:00.945Z,6.13
2018-06-13T18:55:30.899Z,5.70
2018-06-13T18:58:00.418Z,4.63
2018-06-13T19:00:30.607Z,5.40
2018-06-13T19:03:00.188Z,6.10
2018-06-13T19:05:30.309Z,7.20
2018-06-13T19:08:00.150Z,4.57
2018-06-13T19:10:30.045Z,4.80
2018-06-13T19:12:59.492Z,7.53
2018-06-13T19:15:29.187Z,5.77
2018-06-13T19:17:59.260Z,6.53
2018-06-13T19:20:29.411Z,5.13
2018-06-13T19:23:00.706Z,5.00
2018-06-13T19:25:30.401Z,4.47
2018-06-13T19:27:59.974Z,3.77
2018-06-13T19:30:30.043Z,8.27
2018-06-13T19:32:59.668Z,7.77
2018-06-13T19:35:29.413Z,6.40
2018-06-13T19:37:59.433Z,6.73
2018-06-13T19:40:28.884Z,5.33
2018-06-13T19:42:58.321Z,6.00
2018-06-13T19:45:28.344Z,5.23
2018-06-13T19:48:03.213Z,4.80
2018-06-13T19:50:32.664Z,5.83
2018-06-13T19:53:07.471Z,4.70
2018-06-13T19:55:42.312Z,5.00
2018-06-13T19:58:12.115Z,4.37
2018-06-13T20:00:41.681Z,5.93
2018-06-13T20:03:16.450Z,9.33
2018-06-13T20:05:46.255Z,10.27
2018-06-13T20:08:15.641Z,5.67
2018-06-13T20:10:45.034Z,7.03
2018-06-13T20:13:19.932Z,5.00
2018-06-13T20:15:54.453Z,6.87
2018-06-13T20:18:29.220Z,5.17
2018-06-13T20:20:58.622Z,5.63
2018-06-13T20:23:28.066Z,5.13
2018-06-13T20:26:02.908Z,6.27
2018-06-13T20:28:37.707Z,8.20
2018-06-13T20:31:12.509Z,5.67
2018-06-13T20:33:42.055Z,6.90
2018-06-13T20:36:11.699Z,6.57
2018-06-13T20:38:41.726Z,5.93
2018-06-13T20:41:11.128Z,5.53
2018-06-13T20:43:42.385Z,7.80
2018-06-13T20:46:12.034Z,5.83
2018-06-13T20:48:41.457Z,6.63
2018-06-13T20:51:11.432Z,10.53
2018-06-13T20:53:40.776Z,6.60
2018-06-13T20:56:10.227Z,4.83
2018-06-13T20:58:39.926Z,5.53
2018-06-13T21:01:09.597Z,5.63
2018-06-13T21:03:39.295Z,4.37
2018-06-13T21:06:10.505Z,6.60
2018-06-13T21:08:40.141Z,5.67
2018-06-13T21:11:09.735Z,6.50
2018-06-13T21:13:41.555Z,5.63
2018-06-13T21:16:11.724Z,5.93
2018-06-13T21:24:46.183Z,7.63
2018-06-13T21:27:15.926Z,4.90
2018-06-13T21:29:45.330Z,7.67
2018-06-13T21:32:14.808Z,4.67
2018-06-13T21:34:44.329Z,6.17
2018-06-13T21:37:13.949Z,4.90
2018-06-13T21:39:43.392Z,3.93
2018-06-13T21:42:13.163Z,3.77
2018-06-13T21:44:44.484Z,7.90
2018-06-13T21:47:14.046Z,4.37
2018-06-13T21:49:44.280Z,4.23
2018-06-13T21:52:13.963Z,4.60
2018-06-13T21:54:43.381Z,4.47
2018-06-13T21:57:13.048Z,6.20
2018-06-13T21:59:43.903Z,4.97
2018-06-13T22:02:13.283Z,6.67
2018-06-13T22:04:42.730Z,4.50
2018-06-13T22:07:12.547Z,6.30
2018-06-13T22:09:42.004Z,6.17
2018-06-13T22:12:11.473Z,7.43
2018-06-13T22:14:42.574Z,5.43
2018-06-13T22:17:13.535Z,6.27
2018-06-13T22:19:43.041Z,4.83
2018-06-13T22:22:12.748Z,5.63
2018-06-13T22:24:42.109Z,5.77
2018-06-13T22:27:11.870Z,5.70
2018-06-13T22:29:41.550Z,4.70
2018-06-13T22:32:11.178Z,4.90
2018-06-13T22:34:40.564Z,5.20
2018-06-13T22:37:10.184Z,5.93
2018-06-13T22:39:39.598Z,6.07
2018-06-13T22:42:09.284Z,5.50
2018-06-13T22:44:38.995Z,7.23
2018-06-13T22:47:08.443Z,5.43
2018-06-13T22:49:37.954Z,5.77
2018-06-13T22:55:02.381Z,6.27
2018-06-13T22:57:32.454Z,7.17
2018-06-13T23:00:02.291Z,5.00
2018-06-13T23:02:32.258Z,4.90
2018-06-13T23:05:02.471Z,4.93
2018-06-13T23:07:33.156Z,8.57
2018-06-13T23:10:02.848Z,7.33
2018-06-13T23:12:32.510Z,5.93
2018-06-13T23:15:02.387Z,5.57
2018-06-13T23:17:34.527Z,8.50
2018-06-13T23:20:05.132Z,5.47
2018-06-13T23:22:34.772Z,5.20
2018-06-13T23:25:05.208Z,5.43
2018-06-13T23:27:34.872Z,7.90
2018-06-13T23:30:04.668Z,10.90
2018-06-13T23:32:34.493Z,7.80
2018-06-13T23:35:08.130Z,5.90
2018-06-13T23:37:37.828Z,5.17
2018-06-13T23:40:11.345Z,5.70
2018-06-13T23:42:42.366Z,6.47
2018-06-13T23:45:13.285Z,4.70
2018-06-13T23:47:44.193Z,5.53
2018-06-13T23:50:14.908Z,8.03
2018-06-13T23:52:45.028Z,5.37
2018-06-13T23:55:16.825Z,6.90
2018-06-13T23:57:47.029Z,5.83
